createdAt,value
2018-05-18T11:25:57.072Z,12.67
2018-05-18T11:28:22.919Z,12.40
2018-05-18T11:30:48.589Z,12.27
2018-05-18T11:33:14.452Z,13.00
2018-05-18T11:35:40.320Z,12.80
2018-05-18T11:38:05.882Z,12.73
2018-05-18T11:40:31.541Z,11.87
2018-05-18T11:42:57.376Z,11.40
2018-05-18T11:45:22.960Z,10.40
2018-05-18T11:47:48.576Z,12.67
2018-05-18T11:50:14.501Z,13.00
2018-05-18T11:52:40.127Z,11.40
2018-05-18T11:55:05.791Z,11.07
2018-05-18T11:57:32.666Z,11.73
2018-05-18T11:59:58.291Z,10.57
2018-05-18T12:02:24.009Z,12.27
2018-05-18T12:04:49.786Z,10.23
2018-05-18T12:07:15.417Z,11.20
2018-05-18T12:09:41.225Z,13.57
2018-05-18T12:12:07.056Z,13.30
2018-05-18T12:14:32.626Z,12.90
2018-05-18T12:16:58.205Z,13.17
2018-05-18T12:19:24.090Z,12.87
2018-05-18T12:21:49.781Z,12.00
2018-05-18T12:24:15.365Z,11.97
2018-05-18T12:26:41.135Z,13.90
2018-05-18T12:29:06.798Z,13.82
2018-05-18T12:31:32.689Z,13.60
2018-05-18T12:33:58.416Z,11.63
2018-05-18T12:36:24.099Z,11.70
2018-05-18T12:38:49.953Z,11.17
2018-05-18T12:41:15.697Z,11.37
2018-05-18T12:43:41.275Z,10.63
2018-05-18T12:46:07.194Z,11.50
2018-05-18T12:48:33.027Z,10.73
2018-05-18T12:50:58.890Z,12.23
2018-05-18T12:53:24.482Z,10.80
2018-05-18T12:55:50.539Z,11.20
2018-05-18T12:58:16.209Z,9.13
2018-05-18T13:00:41.775Z,9.37
2018-05-18T13:03:07.558Z,11.55
2018-05-18T13:05:34.214Z,10.83
2018-05-18T13:07:59.762Z,11.00
2018-05-18T13:10:25.546Z,10.97
2018-05-18T13:12:51.139Z,9.37
2018-05-18T13:15:17.167Z,11.00
2018-05-18T13:17:42.961Z,10.73
2018-05-18T13:20:08.556Z,12.00
2018-05-18T13:22:34.218Z,11.20
2018-05-18T13:25:00.057Z,10.93
2018-05-18T13:27:25.685Z,10.87
2018-05-18T13:29:51.274Z,10.27
2018-05-18T13:32:17.144Z,9.13
2018-05-18T13:34:42.861Z,10.65
2018-05-18T13:37:08.497Z,10.27
2018-05-18T13:39:34.485Z,10.13
2018-05-18T13:42:00.219Z,10.33
2018-05-18T13:44:25.862Z,10.53
2018-05-18T13:46:51.781Z,8.77
2018-05-18T13:49:17.478Z,8.53
2018-05-18T13:51:43.229Z,8.07
2018-05-18T13:54:08.848Z,7.87
2018-05-18T13:56:34.423Z,9.30
2018-05-18T13:59:00.248Z,10.27
2018-05-18T14:01:26.324Z,10.30
2018-05-18T14:03:51.971Z,9.17
2018-05-18T14:06:17.569Z,10.13
2018-05-18T14:08:43.332Z,13.43
2018-05-18T14:11:08.978Z,12.57
2018-05-18T14:13:34.596Z,13.40
2018-05-18T14:16:00.366Z,12.80
2018-05-18T14:18:26.796Z,14.00
2018-05-18T14:20:52.396Z,14.63
2018-05-18T14:23:18.351Z,13.10
2018-05-18T14:25:44.028Z,13.03
2018-05-18T14:28:09.917Z,13.43
2018-05-18T14:30:35.490Z,11.93
2018-05-18T14:33:02.251Z,13.40
2018-05-18T14:35:27.914Z,11.87
2018-05-18T14:37:53.830Z,12.17
2018-05-18T14:40:19.386Z,13.30
2018-05-18T14:42:45.233Z,12.90
2018-05-18T14:45:11.033Z,14.03
2018-05-18T14:47:36.693Z,12.20
2018-05-18T14:50:02.322Z,12.57
2018-05-18T14:52:28.625Z,12.73
2018-05-18T14:54:54.217Z,11.60
2018-05-18T14:57:21.103Z,12.33
2018-05-18T14:59:46.924Z,13.00
2018-05-18T15:02:12.633Z,12.97
2018-05-18T15:04:38.340Z,12.63
2018-05-18T15:07:04.145Z,12.37
2018-05-18T15:09:29.733Z,13.37
2018-05-18T15:11:55.325Z,11.90
2018-05-18T15:14:21.200Z,13.20
2018-05-18T15:16:46.794Z,13.00
2018-05-18T15:19:12.813Z,11.87
2018-05-18T15:21:38.466Z,13.33
2018-05-18T15:24:04.355Z,13.83
2018-05-18T15:26:30.138Z,14.63
2018-05-18T15:28:55.718Z,14.50
2018-05-18T15:31:21.320Z,14.70
2018-05-18T15:33:47.243Z,13.03
2018-05-18T15:36:12.878Z,14.70
2018-05-18T15:38:38.495Z,14.77
2018-05-18T15:41:04.714Z,14.80
2018-05-18T15:43:30.414Z,12.57
2018-05-18T15:45:56.084Z,15.07
2018-05-18T15:48:21.905Z,14.53
2018-05-18T15:50:47.617Z,15.13
2018-05-18T15:53:13.282Z,14.47
2018-05-18T15:55:39.083Z,15.50
2018-05-18T15:58:05.231Z,13.70
2018-05-18T16:00:30.782Z,13.83
2018-05-18T16:02:56.864Z,14.87
2018-05-18T16:05:22.498Z,14.97
2018-05-18T16:07:48.164Z,14.20
2018-05-18T16:10:14.037Z,13.73
2018-05-18T16:12:39.733Z,11.70
2018-05-18T16:15:05.463Z,14.50
2018-05-18T16:17:31.254Z,14.30
2018-05-18T16:19:56.943Z,13.57
2018-05-18T16:22:22.633Z,12.70
2018-05-18T16:24:48.536Z,13.33
2018-05-18T16:27:14.289Z,13.10
2018-05-18T16:29:40.044Z,12.77
2018-05-18T16:32:05.767Z,14.20
2018-05-18T16:34:31.450Z,12.93
2018-05-18T16:36:57.051Z,12.97
2018-05-18T16:39:22.877Z,12.90
2018-05-18T16:41:49.003Z,15.23
2018-05-18T16:44:14.590Z,13.17
2018-05-18T16:46:40.701Z,11.60
2018-05-18T16:49:06.267Z,11.57
2018-05-18T16:51:31.918Z,11.17
2018-05-18T16:53:57.767Z,12.33
2018-05-18T16:56:24.809Z,11.47
2018-05-18T16:58:50.470Z,12.00
2018-05-18T17:01:16.453Z,11.13
2018-05-18T17:03:42.015Z,10.80
2018-05-18T17:06:07.596Z,10.77
2018-05-18T17:08:33.370Z,10.53
2018-05-18T17:10:58.981Z,9.67
2018-05-18T17:13:24.796Z,10.43
2018-05-18T17:15:50.592Z,10.33
2018-05-18T17:18:16.251Z,9.87
2018-05-18T17:20:41.885Z,9.33
2018-05-18T17:23:07.647Z,8.97
2018-05-18T17:25:33.330Z,10.13
2018-05-18T17:27:58.906Z,9.90
2018-05-18T17:30:25.115Z,10.33
2018-05-18T17:32:50.765Z,10.70
2018-05-18T17:35:16.343Z,10.47
2018-05-18T17:37:42.104Z,11.20
2018-05-18T17:40:07.658Z,11.17
2018-05-18T17:42:34.115Z,11.07
2018-05-18T17:44:59.914Z,11.63
2018-05-18T17:47:25.484Z,11.30
2018-05-18T17:49:51.169Z,13.93
2018-05-18T17:52:17.890Z,13.60
2018-05-18T17:54:44.398Z,15.53
2018-05-18T17:57:10.193Z,13.03
2018-05-18T17:59:36.030Z,14.70
2018-05-18T18:02:01.714Z,17.10
2018-05-18T18:04:27.208Z,14.83
2018-05-18T18:06:53.097Z,14.10
2018-05-18T18:09:18.761Z,14.20
2018-05-18T18:11:44.399Z,14.00
2018-05-18T18:14:10.233Z,15.20
2018-05-18T18:16:35.776Z,13.80
2018-05-18T18:19:01.654Z,14.23
2018-05-18T18:21:28.931Z,15.13
2018-05-18T18:23:55.337Z,14.77
2018-05-18T18:26:21.026Z,14.40
2018-05-18T18:28:47.065Z,15.97
2018-05-18T18:31:12.693Z,14.60
2018-05-18T18:33:39.071Z,15.20
2018-05-18T18:36:04.739Z,14.43
2018-05-18T18:38:31.532Z,14.50
2018-05-18T18:40:57.113Z,14.97
2018-05-18T18:43:22.805Z,14.93
2018-05-18T18:45:49.502Z,14.00
2018-05-18T18:48:15.078Z,15.37
2018-05-18T18:50:40.892Z,14.77
2018-05-18T18:53:07.467Z,14.63
2018-05-18T18:55:33.242Z,14.53
2018-05-18T18:57:59.932Z,16.20
2018-05-18T19:00:25.531Z,14.77
2018-05-18T19:02:51.193Z,15.23
2018-05-18T19:05:17.460Z,13.80
2018-05-18T19:07:43.103Z,14.40
2018-05-18T19:10:08.661Z,14.10
2018-05-18T19:12:34.421Z,13.77
2018-05-18T19:15:00.024Z,14.37
2018-05-18T19:17:25.870Z,13.77
2018-05-18T19:19:51.604Z,13.57
2018-05-18T19:22:17.165Z,13.40
2018-05-18T19:24:42.751Z,16.73
2018-05-18T19:27:08.517Z,14.17
2018-05-18T19:29:34.183Z,13.47
2018-05-18T19:31:59.775Z,12.63
2018-05-18T19:34:25.868Z,12.90
2018-05-18T19:36:51.715Z,13.53
2018-05-18T19:39:17.285Z,12.27
2018-05-18T19:41:43.157Z,12.83
2018-05-18T19:44:08.778Z,12.57
2018-05-18T19:46:34.451Z,12.30
2018-05-18T19:49:00.412Z,11.00
2018-05-18T19:51:26.064Z,11.93
2018-05-18T19:53:51.711Z,10.27
2018-05-18T19:56:17.849Z,10.53
2018-05-18T19:58:43.417Z,10.10
2018-05-18T20:01:09.069Z,10.80
2018-05-18T20:03:35.020Z,11.00
2018-05-18T20:06:00.701Z,10.57
2018-05-18T20:08:26.286Z,10.40
2018-05-18T20:10:52.035Z,11.30
2018-05-18T20:13:17.598Z,10.50
2018-05-18T20:15:43.188Z,10.97
2018-05-18T20:18:09.046Z,10.07
2018-05-18T20:20:34.702Z,9.87
2018-05-18T20:23:00.466Z,10.43
2018-05-18T20:25:26.333Z,10.67
2018-05-18T20:27:51.909Z,10.20
2018-05-18T20:30:17.488Z,9.93
2018-05-18T20:35:14.725Z,9.70
2018-05-18T20:37:40.384Z,10.13
2018-05-18T20:40:05.957Z,9.37
2018-05-18T20:42:31.809Z,9.50
2018-05-18T20:44:57.509Z,9.47
2018-05-18T20:47:23.368Z,9.43
2018-05-18T20:49:49.344Z,10.20
2018-05-18T20:52:15.401Z,9.63
2018-05-18T20:54:41.459Z,9.23
2018-05-18T20:57:07.129Z,9.60
2018-05-18T20:59:32.722Z,10.30
2018-05-18T21:01:58.612Z,9.93
2018-05-18T21:04:24.287Z,9.93
2018-05-18T21:06:49.981Z,10.37
2018-05-18T21:09:15.729Z,10.03
2018-05-18T21:11:41.385Z,9.83
2018-05-18T21:14:06.970Z,11.70
2018-05-18T21:16:32.728Z,11.63
2018-05-18T21:18:58.627Z,11.97
2018-05-18T21:21:24.302Z,10.60
2018-05-18T21:23:50.175Z,10.07
2018-05-18T21:26:15.892Z,10.20
2018-05-18T21:28:41.558Z,9.73
2018-05-18T21:31:07.307Z,9.87
2018-05-18T21:33:33.170Z,11.30
2018-05-18T21:35:58.784Z,10.80
2018-05-18T21:38:24.451Z,10.30
2018-05-18T21:40:50.197Z,10.17
2018-05-18T21:43:16.313Z,9.87
2018-05-18T21:45:41.896Z,9.27
2018-05-18T21:48:08.643Z,8.70
2018-05-18T21:50:34.308Z,10.00
2018-05-18T21:52:59.929Z,10.13
2018-05-18T21:55:25.713Z,9.60
2018-05-18T21:57:51.314Z,9.60
2018-05-18T22:00:16.883Z,9.87
2018-05-18T22:02:42.757Z,12.03
2018-05-18T22:05:08.813Z,10.57
2018-05-18T22:07:34.404Z,10.53
2018-05-18T22:09:59.960Z,9.87
2018-05-18T22:12:25.924Z,11.03
2018-05-18T22:14:51.745Z,13.35
2018-05-18T22:17:17.427Z,10.90
2018-05-18T22:19:43.057Z,11.13
2018-05-18T22:22:08.801Z,11.40
2018-05-18T22:24:34.405Z,12.63
2018-05-18T22:26:59.964Z,11.23
2018-05-18T22:29:25.813Z,11.90
2018-05-18T22:31:51.445Z,14.00
2018-05-18T22:34:17.370Z,11.97
2018-05-18T22:36:43.177Z,10.93
2018-05-18T22:39:08.851Z,10.93
2018-05-18T22:41:34.427Z,10.97
2018-05-18T22:44:00.266Z,11.30
2018-05-18T22:46:25.837Z,11.33
2018-05-18T22:48:51.405Z,11.07
2018-05-18T22:51:17.402Z,10.80
2018-05-18T22:53:43.184Z,12.85
2018-05-18T22:56:08.874Z,10.43
2018-05-18T22:58:34.654Z,12.80
2018-05-18T23:01:00.250Z,10.73
2018-05-18T23:03:25.892Z,10.63
2018-05-18T23:05:51.634Z,12.07
2018-05-18T23:08:17.201Z,12.53
2018-05-18T23:10:42.837Z,11.20
2018-05-18T23:13:08.837Z,11.30
2018-05-18T23:15:34.504Z,11.50
2018-05-18T23:18:00.341Z,11.30
2018-05-18T23:20:25.854Z,11.83
2018-05-18T23:22:51.431Z,11.77
2018-05-18T23:25:17.248Z,10.93
2018-05-18T23:27:42.825Z,11.60
2018-05-18T23:30:08.394Z,11.20
2018-05-18T23:32:34.294Z,11.87
2018-05-18T23:35:00.141Z,10.93
2018-05-18T23:37:25.800Z,11.83
2018-05-18T23:39:52.546Z,12.27
2018-05-18T23:42:18.126Z,10.70
2018-05-18T23:44:43.699Z,12.27
2018-05-18T23:47:09.519Z,11.97
2018-05-18T23:49:35.721Z,11.13
2018-05-18T23:52:01.405Z,11.47
2018-05-18T23:54:26.957Z,11.90
2018-05-18T23:56:52.725Z,11.80
2018-05-18T23:59:18.428Z,11.53
